Terminal Aerodrome Forecast
Issued by NWS

Home | Current Version | Previous Version | Text Only | Print | Product List | Glossary On
Versions: 1 2 3 4 5 6 7 8 9 10 11 12 13 14 15 16 17
000
FTUS46 KEKA 011143
TAFCEC
TAF
KCEC 011143Z 0112/0212 04005KT P6SM SKC
     FM011800 10009KT P6SM SKC
     FM012100 34012G20KT P6SM FEW250
     FM020300 35009KT P6SM BKN250
     FM020700 01006KT P6SM BKN100=

USA.gov is the U.S. government's official web portal to all federal, state and local government web resources and services.